createdAt,value
2018-02-11T00:00:50.608Z,94536.45
2018-02-11T00:03:18.881Z,94541.64
2018-02-11T00:05:47.915Z,94527.89
2018-02-11T00:08:16.175Z,94530.38
2018-02-11T00:10:44.461Z,94520.44
2018-02-11T00:13:13.500Z,94520.42
2018-02-11T00:15:41.777Z,94508.94
2018-02-11T00:18:10.813Z,94499.45
2018-02-11T00:20:39.088Z,94496.40
2018-02-11T00:23:11.174Z,94505.69
2018-02-11T00:25:39.457Z,94496.16
2018-02-11T00:28:07.716Z,94497.00
2018-02-11T00:30:36.004Z,94484.98
2018-02-11T00:33:04.272Z,94484.66
2018-02-11T00:35:33.317Z,94475.67
2018-02-11T00:38:06.998Z,94472.81
2018-02-11T00:40:36.045Z,94479.20
2018-02-11T00:43:04.315Z,94464.29
2018-02-11T00:45:32.605Z,94460.16
2018-02-11T00:48:00.885Z,94454.02
2018-02-11T00:50:29.162Z,94446.58
2018-02-11T00:52:58.205Z,94446.95
2018-02-11T00:55:27.265Z,94443.69
2018-02-11T00:57:56.304Z,94441.59
2018-02-11T01:00:24.571Z,94436.92
2018-02-11T01:02:53.611Z,94426.61
2018-02-11T01:05:21.889Z,94420.03
2018-02-11T01:07:50.443Z,94403.40
2018-02-11T01:10:19.490Z,94405.56
2018-02-11T01:12:47.755Z,94408.07
2018-02-11T01:15:16.796Z,94392.10
2018-02-11T01:17:45.078Z,94392.98
2018-02-11T01:20:13.336Z,94383.65
2018-02-11T01:22:42.379Z,94385.95
2018-02-11T01:25:10.656Z,94380.27
2018-02-11T01:27:38.937Z,94384.48
2018-02-11T01:30:07.215Z,94386.30
2018-02-11T01:32:35.491Z,94378.80
2018-02-11T01:35:04.532Z,94379.88
2018-02-11T01:37:32.825Z,94359.63
2018-02-11T01:40:01.102Z,94355.41
2018-02-11T01:42:29.380Z,94360.42
2018-02-11T01:44:57.661Z,94355.66
2018-02-11T01:47:26.707Z,94350.82
2018-02-11T01:50:12.700Z,94342.77
2018-02-11T01:52:40.989Z,94340.08
2018-02-11T01:55:09.264Z,94337.11
2018-02-11T01:57:37.531Z,94336.80
2018-02-11T02:00:06.583Z,94341.52
2018-02-11T02:02:34.873Z,94341.14
2018-02-11T02:05:03.148Z,94335.98
2018-02-11T02:07:31.411Z,94323.27
2018-02-11T02:09:59.692Z,94318.64
2018-02-11T02:12:28.732Z,94316.17
2018-02-11T02:14:57.001Z,94312.05
2018-02-11T02:17:25.294Z,94311.45
2018-02-11T02:19:53.563Z,94302.09
2018-02-11T02:22:22.605Z,94297.45
2018-02-11T02:24:50.874Z,94287.59
2018-02-11T02:27:19.145Z,94283.73
2018-02-11T02:29:48.182Z,94286.11
2018-02-11T02:32:16.448Z,94284.02
2018-02-11T02:34:44.715Z,94271.08
2018-02-11T02:37:13.754Z,94276.17
2018-02-11T02:39:42.032Z,94269.45
2018-02-11T02:42:10.309Z,94263.56
2018-02-11T02:44:39.340Z,94254.15
2018-02-11T02:47:07.625Z,94246.23
2018-02-11T02:49:35.923Z,94238.59
2018-02-11T02:52:04.209Z,94245.86
2018-02-11T02:54:32.485Z,94237.25
2018-02-11T02:57:00.891Z,94229.02
2018-02-11T02:59:29.156Z,94224.55
2018-02-11T03:01:58.192Z,94217.34
2018-02-11T03:04:26.464Z,94204.70
2018-02-11T03:06:54.735Z,94209.39
2018-02-11T03:09:23.773Z,94199.06
2018-02-11T03:11:52.050Z,94195.39
2018-02-11T03:14:20.330Z,94194.73
2018-02-11T03:16:48.614Z,94192.24
2018-02-11T03:19:16.880Z,94182.02
2018-02-11T03:21:45.918Z,94183.04
2018-02-11T03:24:14.196Z,94180.31
2018-02-11T03:26:42.480Z,94168.67
2018-02-11T03:29:11.507Z,94158.72
2018-02-11T03:31:39.792Z,94154.66
2018-02-11T03:34:08.051Z,94155.75
2018-02-11T03:36:37.093Z,94150.58
2018-02-11T03:39:05.384Z,94150.84
2018-02-11T03:41:33.663Z,94154.06
2018-02-11T03:44:01.927Z,94136.42
2018-02-11T03:46:30.204Z,94142.56
2018-02-11T03:48:58.468Z,94138.33
2018-02-11T03:51:26.743Z,94140.64
2018-02-11T03:53:55.013Z,94133.58
2018-02-11T03:56:23.291Z,94142.84
2018-02-11T03:58:51.573Z,94132.09
2018-02-11T04:01:19.848Z,94133.22
2018-02-11T04:03:48.880Z,94133.60
2018-02-11T04:06:17.165Z,94124.34
2018-02-11T04:08:45.430Z,94117.33
2018-02-11T04:11:14.458Z,94107.29
2018-02-11T04:13:42.723Z,94106.92
2018-02-11T04:16:11.757Z,94096.20
2018-02-11T04:18:40.032Z,94091.33
2018-02-11T04:21:08.304Z,94091.11
2018-02-11T04:23:37.344Z,94081.13
2018-02-11T04:26:05.603Z,94082.18
2018-02-11T04:28:34.668Z,94075.61
2018-02-11T04:31:02.937Z,94068.14
2018-02-11T04:33:31.279Z,94069.55
2018-02-11T04:35:59.506Z,94072.95
2018-02-11T04:38:27.776Z,94058.05
2018-02-11T04:40:56.053Z,94062.83
2018-02-11T04:43:25.096Z,94053.65
2018-02-11T04:45:53.405Z,94051.92
2018-02-11T04:48:21.672Z,94047.92
2018-02-11T04:50:49.951Z,94040.67
2018-02-11T04:53:18.219Z,94027.50
2018-02-11T04:55:46.492Z,94033.61
2018-02-11T04:58:15.527Z,94024.59
2018-02-11T05:00:43.787Z,94015.95
2018-02-11T05:03:12.827Z,94013.66
2018-02-11T05:05:41.097Z,94005.77
2018-02-11T05:08:09.368Z,94000.44
2018-02-11T05:10:38.401Z,93984.85
2018-02-11T05:13:06.690Z,93986.23
2018-02-11T05:15:34.958Z,93978.81
2018-02-11T05:18:03.993Z,93972.59
2018-02-11T05:20:32.960Z,93970.31
2018-02-11T05:23:02.014Z,93964.02
2018-02-11T05:25:30.277Z,93957.27
2018-02-11T05:27:58.543Z,93943.73
2018-02-11T05:30:27.581Z,93947.87
2018-02-11T05:32:55.842Z,93937.88
2018-02-11T05:35:24.877Z,93937.70
2018-02-11T05:37:53.148Z,93945.11
2018-02-11T05:40:22.177Z,93939.89
2018-02-11T05:42:50.457Z,93931.02
2018-02-11T05:45:18.725Z,93935.22
2018-02-11T05:47:47.762Z,93924.52
2018-02-11T05:50:16.031Z,93920.70
2018-02-11T05:52:44.309Z,93918.55
2018-02-11T05:55:13.334Z,93914.94
2018-02-11T05:57:41.595Z,93904.51
2018-02-11T06:00:10.623Z,93892.90
2018-02-11T06:02:38.887Z,93885.55
2018-02-11T06:05:07.160Z,93886.50
2018-02-11T06:07:35.428Z,93888.52
2018-02-11T06:10:03.692Z,93880.55
2018-02-11T06:12:32.740Z,93877.32
2018-02-11T06:15:01.013Z,93865.63
2018-02-11T06:17:29.287Z,93862.72
2018-02-11T06:19:57.549Z,93862.89
2018-02-11T06:22:25.819Z,93852.84
2018-02-11T06:24:54.854Z,93839.73
2018-02-11T06:27:23.111Z,93840.50
2018-02-11T06:29:52.140Z,93815.24
2018-02-11T06:32:20.410Z,93816.00
2018-02-11T06:34:48.680Z,93809.30
2018-02-11T06:37:17.807Z,93803.43
2018-02-11T06:39:46.066Z,93806.39
2018-02-11T06:42:14.341Z,93808.53
2018-02-11T06:44:42.605Z,93807.66
2018-02-11T06:47:10.869Z,93801.72
2018-02-11T06:49:39.123Z,93797.17
2018-02-11T06:52:07.396Z,93796.68
2018-02-11T06:54:35.666Z,93781.34
2018-02-11T06:57:04.016Z,93788.90
2018-02-11T06:59:32.292Z,93791.48
2018-02-11T07:02:01.321Z,93782.95
2018-02-11T07:04:29.587Z,93793.14
2018-02-11T07:06:58.607Z,93779.73
2018-02-11T07:09:26.992Z,93768.73
2018-02-11T07:11:56.023Z,93775.08
2018-02-11T07:14:24.288Z,93761.55
2018-02-11T07:16:52.561Z,93762.89
2018-02-11T07:19:21.601Z,93765.58
2018-02-11T07:21:49.855Z,93748.45
2018-02-11T07:24:18.892Z,93753.20
2018-02-11T07:26:47.156Z,93761.52
2018-02-11T07:29:16.186Z,93753.80
2018-02-11T07:31:44.444Z,93757.58
2018-02-11T07:34:13.480Z,93739.22
2018-02-11T07:36:41.748Z,93743.13
2018-02-11T07:39:10.783Z,93732.00
2018-02-11T07:41:39.037Z,93745.52
2018-02-11T07:44:08.077Z,93743.34
2018-02-11T07:46:36.349Z,93730.16
2018-02-11T07:49:04.619Z,93740.05
2018-02-11T07:51:33.656Z,93733.33
2018-02-11T07:54:01.918Z,93737.53
2018-02-11T07:56:30.943Z,93730.94
2018-02-11T07:58:59.209Z,93737.06
2018-02-11T08:01:28.236Z,93729.81
2018-02-11T08:03:56.508Z,93740.16
2018-02-11T08:06:25.553Z,93732.94
2018-02-11T08:08:53.819Z,93718.95
2018-02-11T08:11:22.080Z,93722.70
2018-02-11T08:13:50.382Z,93719.00
2018-02-11T08:16:19.404Z,93729.26
2018-02-11T08:18:47.684Z,93721.41
2018-02-11T08:21:15.937Z,93711.52
2018-02-11T08:23:44.199Z,93714.72
2018-02-11T08:26:12.464Z,93717.52
2018-02-11T08:28:40.734Z,93717.61
2018-02-11T08:31:08.991Z,93706.68
2018-02-11T08:33:37.272Z,93700.63
2018-02-11T08:36:05.532Z,93705.73
2018-02-11T08:38:33.799Z,93705.34
2018-02-11T08:41:02.065Z,93704.05
2018-02-11T08:43:31.136Z,93709.05
2018-02-11T08:45:59.396Z,93709.56
2018-02-11T08:48:27.672Z,93705.45
2018-02-11T08:50:55.944Z,93712.78
2018-02-11T08:53:24.213Z,93702.41
2018-02-11T08:55:53.236Z,93720.75
2018-02-11T08:58:21.507Z,93711.34
2018-02-11T09:00:50.524Z,93719.47
2018-02-11T09:03:19.574Z,93702.88
2018-02-11T09:05:47.840Z,93715.50
2018-02-11T09:08:16.117Z,93705.58
2018-02-11T09:10:44.371Z,93692.91
2018-02-11T09:13:12.643Z,93688.61
2018-02-11T09:15:40.912Z,93690.63
2018-02-11T09:18:09.172Z,93678.82
2018-02-11T09:20:38.382Z,93670.27
2018-02-11T09:23:06.654Z,93676.80
2018-02-11T09:25:35.691Z,93665.73
2018-02-11T09:28:04.741Z,93664.36
2018-02-11T09:30:33.074Z,93656.02
2018-02-11T09:33:03.312Z,93649.70
2018-02-11T09:35:32.503Z,93648.00
2018-02-11T09:38:01.550Z,93650.92
2018-02-11T09:40:29.813Z,93656.04
2018-02-11T09:42:58.089Z,93639.44
2018-02-11T09:45:27.116Z,93645.72
2018-02-11T09:47:55.396Z,93639.94
2018-02-11T09:50:23.673Z,93648.12
2018-02-11T09:52:52.707Z,93642.88
2018-02-11T09:55:20.979Z,93639.80
2018-02-11T09:57:49.242Z,93625.12
2018-02-11T10:00:18.284Z,93630.81
2018-02-11T10:02:46.547Z,93622.91
2018-02-11T10:05:15.589Z,93627.85
2018-02-11T10:07:43.854Z,93628.84
2018-02-11T10:10:12.147Z,93626.55
2018-02-11T10:12:41.163Z,93624.55
2018-02-11T10:15:09.440Z,93629.33
2018-02-11T10:17:37.704Z,93621.60
2018-02-11T10:20:06.739Z,93630.22
2018-02-11T10:22:35.017Z,93621.49
2018-02-11T10:25:03.383Z,93618.03
2018-02-11T10:27:32.432Z,93618.34
2018-02-11T10:30:00.696Z,93623.03
2018-02-11T10:32:28.960Z,93620.31
2018-02-11T10:34:57.231Z,93625.46
2018-02-11T10:37:25.487Z,93624.07
2018-02-11T10:39:53.761Z,93624.26
2018-02-11T10:42:22.024Z,93625.48
2018-02-11T10:44:51.059Z,93617.05
2018-02-11T10:47:19.324Z,93619.56
2018-02-11T10:49:48.360Z,93614.47
2018-02-11T10:52:16.633Z,93629.52
2018-02-11T10:54:44.906Z,93629.12
2018-02-11T10:57:13.931Z,93626.75
2018-02-11T10:59:42.208Z,93626.06
2018-02-11T11:02:10.477Z,93631.61
2018-02-11T11:04:39.519Z,93627.95
2018-02-11T11:07:07.788Z,93630.79
2018-02-11T11:09:36.055Z,93639.63
2018-02-11T11:12:05.123Z,93635.70
2018-02-11T11:14:34.300Z,93629.18
2018-02-11T11:17:03.496Z,93629.28
2018-02-11T11:19:32.535Z,93636.63
2018-02-11T11:22:00.805Z,93634.17
2018-02-11T11:24:29.088Z,93634.33
2018-02-11T11:26:57.371Z,93629.49
2018-02-11T11:29:26.417Z,93633.23
2018-02-11T11:31:54.690Z,93630.44
2018-02-11T11:34:22.968Z,93626.71
2018-02-11T11:36:51.236Z,93617.42
2018-02-11T11:39:20.272Z,93620.76
2018-02-11T11:41:48.551Z,93614.52
2018-02-11T11:44:16.810Z,93623.63
2018-02-11T11:46:45.861Z,93632.13
2018-02-11T11:49:14.133Z,93619.44
2018-02-11T11:51:42.402Z,93625.86
2018-02-11T11:54:11.458Z,93620.94
2018-02-11T11:56:39.708Z,93620.84
2018-02-11T11:59:07.981Z,93619.80
2018-02-11T12:01:37.019Z,93617.42
2018-02-11T12:04:05.283Z,93612.02
2018-02-11T12:06:34.332Z,93621.81
2018-02-11T12:09:02.614Z,93612.69
2018-02-11T12:11:30.879Z,93610.39
2018-02-11T12:13:59.149Z,93609.59
2018-02-11T12:16:28.179Z,93609.79
2018-02-11T12:18:56.441Z,93608.92
2018-02-11T12:21:25.476Z,93609.58
2018-02-11T12:23:53.748Z,93610.05
2018-02-11T12:26:22.028Z,93597.31
2018-02-11T12:28:51.255Z,93606.40
2018-02-11T12:31:19.530Z,93604.63
2018-02-11T12:33:48.656Z,93609.00
2018-02-11T12:36:16.949Z,93606.34
2018-02-11T12:38:45.220Z,93603.80
2018-02-11T12:41:13.497Z,93605.66
2018-02-11T12:43:43.436Z,93604.59
2018-02-11T12:46:11.709Z,93601.72
2018-02-11T12:48:40.736Z,93602.41
2018-02-11T12:51:09.014Z,93596.25
2018-02-11T12:53:37.277Z,93599.40
2018-02-11T12:56:05.578Z,93599.33
2018-02-11T12:58:33.813Z,93602.84
2018-02-11T13:01:02.076Z,93600.59
2018-02-11T13:03:30.355Z,93600.91
2018-02-11T13:05:59.847Z,93601.00
2018-02-11T13:08:28.120Z,93596.31
2018-02-11T13:10:56.385Z,93606.27
2018-02-11T13:13:25.184Z,93602.97
2018-02-11T13:15:53.463Z,93599.08
2018-02-11T13:18:21.711Z,93611.23
2018-02-11T13:20:50.756Z,93602.72
2018-02-11T13:23:19.019Z,93599.27
2018-02-11T13:25:47.333Z,93612.64
2018-02-11T13:28:15.591Z,93610.66
2018-02-11T13:30:44.634Z,93608.86
2018-02-11T13:33:12.905Z,93608.73
2018-02-11T13:35:41.171Z,93601.13
2018-02-11T13:38:10.201Z,93603.69
2018-02-11T13:40:38.483Z,93611.20
2018-02-11T13:43:06.735Z,93606.53
2018-02-11T13:45:35.003Z,93609.53
2018-02-11T13:48:03.271Z,93597.63
2018-02-11T13:50:31.557Z,93602.64
2018-02-11T13:52:59.832Z,93611.30
2018-02-11T13:55:28.113Z,93605.97
2018-02-11T13:57:56.404Z,93608.29
2018-02-11T14:00:24.701Z,93607.79
2018-02-11T14:02:52.952Z,93606.78
2018-02-11T14:05:21.260Z,93606.63
2018-02-11T14:07:49.524Z,93616.64
2018-02-11T14:10:17.787Z,93613.66
2018-02-11T14:12:46.068Z,93610.33
2018-02-11T14:15:14.332Z,93606.35
2018-02-11T14:17:43.008Z,93603.05
2018-02-11T14:20:11.290Z,93613.08
2018-02-11T14:22:40.321Z,93610.55
2018-02-11T14:25:08.593Z,93608.81
2018-02-11T14:27:37.612Z,93611.38
2018-02-11T14:30:05.879Z,93613.17
2018-02-11T14:32:34.908Z,93610.94
2018-02-11T14:35:03.182Z,93609.87
2018-02-11T14:37:31.459Z,93616.37
2018-02-11T14:40:00.498Z,93616.86
2018-02-11T14:42:28.764Z,93618.38
2018-02-11T14:44:57.054Z,93613.37
2018-02-11T14:47:26.081Z,93618.16
2018-02-11T14:49:54.347Z,93612.45
2018-02-11T14:52:22.621Z,93613.30
2018-02-11T14:54:51.656Z,93609.72
2018-02-11T14:57:19.920Z,93617.86
2018-02-11T14:59:48.984Z,93615.06
2018-02-11T15:02:17.238Z,93614.37
2018-02-11T15:04:45.503Z,93620.75
2018-02-11T15:07:13.775Z,93609.86
2018-02-11T15:09:42.812Z,93614.73
2018-02-11T15:12:11.092Z,93620.25
2018-02-11T15:14:39.356Z,93616.17
2018-02-11T15:17:08.391Z,93609.23
2018-02-11T15:19:36.651Z,93612.86
2018-02-11T15:22:04.919Z,93625.38
2018-02-11T15:24:33.175Z,93622.58
2018-02-11T15:27:01.462Z,93625.20
2018-02-11T15:29:29.723Z,93628.30
2018-02-11T15:31:58.773Z,93626.99
2018-02-11T15:34:27.050Z,93632.23
2018-02-11T15:36:55.309Z,93632.75
2018-02-11T15:39:24.346Z,93637.66
2018-02-11T15:41:52.637Z,93640.62
2018-02-11T15:44:20.894Z,93640.37
2018-02-11T15:46:49.163Z,93639.23
2018-02-11T15:49:18.198Z,93650.03
2018-02-11T15:51:46.472Z,93652.18
2018-02-11T15:54:14.738Z,93643.55
2018-02-11T15:56:43.045Z,93644.75
2018-02-11T15:59:12.068Z,93653.02
2018-02-11T16:01:40.354Z,93652.22
2018-02-11T16:04:08.621Z,93649.08
2018-02-11T16:06:37.672Z,93652.72
2018-02-11T16:09:05.935Z,93661.13
2018-02-11T16:11:34.221Z,93662.29
2018-02-11T16:14:02.487Z,93661.02
2018-02-11T16:16:31.538Z,93668.32
2018-02-11T16:18:59.804Z,93676.36
2018-02-11T16:21:28.089Z,93670.52
2018-02-11T16:23:57.122Z,93669.55
2018-02-11T16:26:25.396Z,93679.64
2018-02-11T16:28:53.664Z,93671.63
2018-02-11T16:31:22.713Z,93672.13
2018-02-11T16:33:50.971Z,93677.06
2018-02-11T16:36:19.249Z,93674.66
2018-02-11T16:38:47.520Z,93681.21
2018-02-11T16:41:15.808Z,93692.66
2018-02-11T16:43:44.071Z,93696.06
2018-02-11T16:46:12.357Z,93693.05
2018-02-11T16:48:40.669Z,93694.94
2018-02-11T16:51:08.901Z,93694.34
2018-02-11T16:53:37.173Z,93700.05
2018-02-11T16:56:05.446Z,93691.53
2018-02-11T16:58:34.485Z,93696.55
2018-02-11T17:01:02.768Z,93702.63
2018-02-11T17:03:31.029Z,93700.38
2018-02-11T17:06:00.076Z,93708.42
2018-02-11T17:08:28.345Z,93712.44
2018-02-11T17:10:56.637Z,93716.59
2018-02-11T17:13:24.944Z,93711.84
2018-02-11T17:15:53.217Z,93716.45
2018-02-11T17:18:21.484Z,93713.23
2018-02-11T17:20:50.532Z,93708.02
2018-02-11T17:23:18.805Z,93704.67
2018-02-11T17:25:47.087Z,93709.25
2018-02-11T17:28:15.348Z,93713.97
2018-02-11T17:30:44.387Z,93711.25
2018-02-11T17:33:12.661Z,93716.46
2018-02-11T17:35:40.935Z,93728.39
2018-02-11T17:38:09.967Z,93721.29
2018-02-11T17:40:38.243Z,93722.45
2018-02-11T17:43:06.512Z,93721.45
2018-02-11T17:45:36.255Z,93721.45
2018-02-11T17:48:04.535Z,93729.47
2018-02-11T17:50:33.576Z,93729.80
2018-02-11T17:53:01.880Z,93729.51
2018-02-11T17:55:30.152Z,93732.80
2018-02-11T17:58:00.173Z,93735.31
2018-02-11T18:00:28.454Z,93736.48
2018-02-11T18:02:56.731Z,93733.02
2018-02-11T18:05:25.776Z,93744.91
2018-02-11T18:07:54.051Z,93748.41
2018-02-11T18:10:22.333Z,93750.06
2018-02-11T18:12:50.624Z,93754.31
2018-02-11T18:15:18.891Z,93754.91
2018-02-11T18:17:47.192Z,93747.69
2018-02-11T18:20:16.410Z,93760.69
2018-02-11T18:22:44.689Z,93757.27
2018-02-11T18:25:12.967Z,93750.56
2018-02-11T18:27:41.274Z,93755.01
2018-02-11T18:30:09.547Z,93770.85
2018-02-11T18:32:38.602Z,93769.75
2018-02-11T18:35:06.877Z,93764.05
2018-02-11T18:37:35.162Z,93770.25
2018-02-11T18:40:03.436Z,93772.58
2018-02-11T18:42:31.718Z,93779.47
2018-02-11T18:44:59.978Z,93786.34
2018-02-11T18:47:29.012Z,93788.81
2018-02-11T18:49:57.284Z,93788.12
2018-02-11T18:52:26.326Z,93802.34
2018-02-11T18:54:54.604Z,93797.95
2018-02-11T18:57:22.875Z,93790.86
2018-02-11T18:59:51.161Z,93789.76
2018-02-11T19:02:19.436Z,93796.81
2018-02-11T19:04:48.469Z,93790.64
2018-02-11T19:07:16.799Z,93794.45
2018-02-11T19:09:45.051Z,93800.02
2018-02-11T19:12:13.328Z,93799.48
2018-02-11T19:14:41.598Z,93803.93
2018-02-11T19:17:10.672Z,93801.58
2018-02-11T19:19:38.924Z,93802.97
2018-02-11T19:22:07.196Z,93799.67
2018-02-11T19:24:35.473Z,93808.20
2018-02-11T19:27:04.512Z,93804.48
2018-02-11T19:29:32.791Z,93815.91
2018-02-11T19:32:01.059Z,93821.13
2018-02-11T19:34:30.135Z,93819.92
2018-02-11T19:36:58.386Z,93820.72
2018-02-11T19:39:26.656Z,93823.06
2018-02-11T19:41:54.918Z,93819.12
2018-02-11T19:44:24.641Z,93819.78
2018-02-11T19:46:52.912Z,93824.09
2018-02-11T19:49:21.184Z,93821.51
2018-02-11T19:51:49.443Z,93824.42
2018-02-11T19:54:18.485Z,93822.48
2018-02-11T19:56:46.770Z,93823.20
2018-02-11T19:59:15.041Z,93841.03
2018-02-11T20:01:43.307Z,93829.91
2018-02-11T20:04:11.596Z,93831.91
2018-02-11T20:06:39.855Z,93831.42
2018-02-11T20:09:08.891Z,93838.27
2018-02-11T20:11:37.170Z,93843.63
2018-02-11T20:14:05.453Z,93846.60
2018-02-11T20:16:34.482Z,93837.27
2018-02-11T20:19:02.760Z,93844.59
2018-02-11T20:21:31.024Z,93862.05
2018-02-11T20:24:00.059Z,93851.04
2018-02-11T20:26:28.325Z,93853.15
2018-02-11T20:28:57.367Z,93859.49
2018-02-11T20:31:25.630Z,93851.14
2018-02-11T20:33:53.925Z,93860.49
2018-02-11T20:36:22.207Z,93856.77
2018-02-11T20:38:50.474Z,93860.30
2018-02-11T20:41:19.832Z,93866.92
2018-02-11T20:43:48.108Z,93862.78
2018-02-11T20:46:16.389Z,93867.45
2018-02-11T20:48:44.664Z,93864.16
2018-02-11T20:51:13.702Z,93864.56
2018-02-11T20:53:41.968Z,93869.17
2018-02-11T20:56:10.257Z,93865.16
2018-02-11T20:58:38.529Z,93866.66
2018-02-11T21:01:07.598Z,93871.81
2018-02-11T21:03:35.852Z,93872.72
2018-02-11T21:06:04.123Z,93874.13
2018-02-11T21:08:32.396Z,93880.58
2018-02-11T21:11:01.440Z,93876.11
2018-02-11T21:13:29.712Z,93870.44
2018-02-11T21:15:57.995Z,93879.44
2018-02-11T21:18:26.264Z,93885.27
2018-02-11T21:20:55.311Z,93885.15
2018-02-11T21:23:23.579Z,93883.27
2018-02-11T21:25:52.619Z,93888.14
2018-02-11T21:28:20.888Z,93889.36
2018-02-11T21:30:49.174Z,93895.37
2018-02-11T21:33:17.449Z,93893.14
2018-02-11T21:35:45.722Z,93907.33
2018-02-11T21:38:14.757Z,93901.95
2018-02-11T21:40:43.040Z,93903.98
2018-02-11T21:43:11.328Z,93911.55
2018-02-11T21:45:39.614Z,93906.93
2018-02-11T21:48:07.919Z,93909.39
2018-02-11T21:50:36.190Z,93910.48
2018-02-11T21:53:04.455Z,93911.45
2018-02-11T21:55:32.729Z,93916.52
2018-02-11T21:58:00.996Z,93906.47
2018-02-11T22:00:29.279Z,93915.53
2018-02-11T22:02:57.557Z,93915.12
2018-02-11T22:05:25.833Z,93919.27
2018-02-11T22:07:54.106Z,93921.86
2018-02-11T22:10:23.152Z,93924.47
2018-02-11T22:12:51.426Z,93928.23
2018-02-11T22:15:19.701Z,93930.51
2018-02-11T22:17:47.973Z,93934.22
2018-02-11T22:20:16.999Z,93936.33
2018-02-11T22:22:45.289Z,93933.69
2018-02-11T22:25:13.560Z,93927.23
2018-02-11T22:27:41.852Z,93934.08
2018-02-11T22:30:10.119Z,93931.81
2018-02-11T22:32:39.167Z,93932.64
2018-02-11T22:35:07.449Z,93939.61
2018-02-11T22:37:35.825Z,93940.34
2018-02-11T22:40:04.091Z,93945.33
2018-02-11T22:42:33.137Z,93942.84
2018-02-11T22:45:01.417Z,93952.20
2018-02-11T22:47:29.713Z,93939.48
2018-02-11T22:49:57.986Z,93943.03
2018-02-11T22:52:26.269Z,93941.44
2018-02-11T22:54:55.298Z,93944.48
2018-02-11T22:57:23.589Z,93947.48
2018-02-11T23:02:20.900Z,93947.27
2018-02-11T23:04:49.980Z,93954.06
2018-02-11T23:07:18.259Z,93951.95
2018-02-11T23:09:46.539Z,93950.86
2018-02-11T23:12:15.591Z,93962.79
2018-02-11T23:14:43.865Z,93961.76
2018-02-11T23:17:12.139Z,93957.97
2018-02-11T23:19:51.248Z,93960.59
2018-02-11T23:22:19.532Z,93961.52
2018-02-11T23:24:47.802Z,93969.52
2018-02-11T23:27:16.092Z,93966.77
2018-02-11T23:29:44.374Z,93974.17
2018-02-11T23:32:12.655Z,93966.85
2018-02-11T23:34:40.939Z,93973.44
2018-02-11T23:37:09.213Z,93965.55
2018-02-11T23:39:37.493Z,93970.33
2018-02-11T23:42:05.759Z,93974.25
2018-02-11T23:44:34.803Z,93973.05
2018-02-11T23:47:03.073Z,93971.00
2018-02-11T23:49:31.354Z,93974.41
2018-02-11T23:51:59.647Z,93976.52
2018-02-11T23:54:27.941Z,93984.09
2018-02-11T23:56:56.215Z,93982.05
2018-02-11T23:59:25.252Z,93983.63
